Time;durP1;ratioP1;P1;durP2;ratioP2;P2;SDS_P1;SDS_P2;PMS_P1;PMS_P2;Temp;Humidity;BMP_temperature;BMP_pressure;BME280_temperature;BME280_humidity;BME280_pressure;Samples;Min_cycle;Max_cycle;Signal;HPM_P1;HPM_P2
2021/03/14 00:00:48;;;;;;;19.00;2.72;;;6.90;99.90;;;;;;5011462;28;20088;-88
2021/03/14 00:03:17;;;;;;;15.23;2.72;;;6.90;99.90;;;;;;5011216;28;20046;-89
2021/03/14 00:05:47;;;;;;;17.08;2.40;;;6.90;99.90;;;;;;5000356;28;20100;-89
2021/03/14 00:08:17;;;;;;;15.77;2.38;;;6.90;99.90;;;;;;5003109;28;20053;-89
2021/03/14 00:11:04;;;;;;;18.50;2.63;;;6.90;99.90;;;;;;5008317;28;20045;-88
2021/03/14 00:13:33;;;;;;;15.43;2.25;;;6.90;99.90;;;;;;5027001;28;20053;-88
2021/03/14 00:16:01;;;;;;;12.65;1.92;;;6.90;99.90;;;;;;5010977;28;20049;-89
2021/03/14 00:18:41;;;;;;;8.88;1.70;;;6.80;99.90;;;;;;5011327;28;20045;-88
2021/03/14 00:21:10;;;;;;;8.50;1.50;;;6.80;99.90;;;;;;5010179;28;20095;-88
2021/03/14 00:23:37;;;;;;;10.25;1.50;;;6.80;99.90;;;;;;5008537;28;20056;-89
2021/03/14 00:26:05;;;;;;;14.43;1.30;;;6.80;99.90;;;;;;5007546;28;20052;-88
2021/03/14 00:28:32;;;;;;;11.25;1.92;;;6.80;99.90;;;;;;5010321;28;20382;-89
2021/03/14 00:30:59;;;;;;;11.38;1.48;;;6.80;99.90;;;;;;5009526;28;20050;-88
2021/03/14 00:33:26;;;;;;;8.68;1.50;;;6.80;99.90;;;;;;5011239;28;20041;-88
2021/03/14 00:35:53;;;;;;;7.43;1.15;;;6.70;99.90;;;;;;5009898;28;20502;-88
2021/03/14 00:38:20;;;;;;;9.20;2.15;;;6.70;99.90;;;;;;5009027;28;20069;-88
2021/03/14 00:40:47;;;;;;;10.82;1.73;;;6.70;99.90;;;;;;5007479;28;20056;-89
2021/03/14 00:43:14;;;;;;;12.45;1.55;;;6.70;99.90;;;;;;5013546;28;20076;-88
2021/03/14 00:45:41;;;;;;;11.27;2.65;;;6.70;99.90;;;;;;5014969;28;20069;-89
2021/03/14 00:48:27;;;;;;;12.50;2.35;;;6.70;99.90;;;;;;5014221;28;20056;-89
2021/03/14 00:50:54;;;;;;;13.48;1.48;;;6.60;99.90;;;;;;5013614;28;20053;-88
2021/03/14 00:53:22;;;;;;;10.13;1.90;;;6.60;99.90;;;;;;5010072;28;20053;-89
2021/03/14 00:55:49;;;;;;;8.77;1.88;;;6.60;99.90;;;;;;5012468;28;20492;-88
2021/03/14 00:58:15;;;;;;;10.55;2.25;;;6.60;99.90;;;;;;5011245;28;20037;-89
2021/03/14 01:00:42;;;;;;;13.27;2.33;;;6.60;99.90;;;;;;5013040;28;20049;-89
2021/03/14 01:03:09;;;;;;;14.10;2.20;;;6.60;99.90;;;;;;5013032;28;20053;-88
2021/03/14 01:05:36;;;;;;;15.05;2.65;;;6.60;99.90;;;;;;5011299;28;20041;-89
2021/03/14 01:08:03;;;;;;;20.02;3.33;;;6.60;99.90;;;;;;5015641;28;20041;-89
2021/03/14 01:10:30;;;;;;;16.73;2.33;;;6.60;99.90;;;;;;5013490;28;20053;-89
2021/03/14 01:12:57;;;;;;;10.50;2.00;;;6.60;99.90;;;;;;5013383;28;20052;-89
2021/03/14 01:15:24;;;;;;;13.50;2.85;;;6.60;99.90;;;;;;5012356;28;20049;-88
2021/03/14 01:17:51;;;;;;;26.10;3.65;;;6.60;99.90;;;;;;5009630;28;20065;-89
2021/03/14 01:20:20;;;;;;;17.23;2.58;;;6.60;99.90;;;;;;5009225;28;20053;-89
2021/03/14 01:22:48;;;;;;;18.40;3.65;;;6.70;99.90;;;;;;5013881;28;20050;-89
2021/03/14 01:25:15;;;;;;;16.48;3.13;;;6.70;99.90;;;;;;5013756;28;20056;-89
2021/03/14 01:27:46;;;;;;;16.05;2.95;;;6.70;99.90;;;;;;5017683;28;20048;-89
2021/03/14 01:30:18;;;;;;;17.52;2.75;;;6.70;99.90;;;;;;5011510;28;20103;-88
2021/03/14 01:32:46;;;;;;;16.42;2.85;;;6.70;99.90;;;;;;5007925;28;20117;-88
2021/03/14 01:35:14;;;;;;;14.65;2.25;;;6.70;99.90;;;;;;5004389;28;20124;-89
2021/03/14 01:37:41;;;;;;;13.40;2.42;;;6.70;99.90;;;;;;5003115;28;20042;-89
2021/03/14 01:40:09;;;;;;;17.90;2.88;;;6.60;99.90;;;;;;5000312;28;20425;-89
2021/03/14 01:42:37;;;;;;;14.65;2.50;;;6.60;99.90;;;;;;5015004;28;20111;-89
2021/03/14 01:45:05;;;;;;;15.23;2.63;;;6.60;99.90;;;;;;5014783;28;20553;-89
2021/03/14 01:47:38;;;;;;;18.42;2.72;;;6.60;99.90;;;;;;5015233;28;20053;-89
2021/03/14 01:50:14;;;;;;;15.98;2.65;;;6.50;99.90;;;;;;5012214;28;20128;-89
2021/03/14 01:52:43;;;;;;;14.93;2.15;;;6.50;99.90;;;;;;5003757;28;20045;-89
2021/03/14 01:55:11;;;;;;;12.05;2.80;;;6.50;99.90;;;;;;5012439;28;20049;-88
2021/03/14 01:57:38;;;;;;;16.73;2.80;;;6.40;99.90;;;;;;5014295;28;20052;-89
2021/03/14 02:00:08;;;;;;;12.65;2.33;;;6.50;99.90;;;;;;5012395;28;20501;-89
2021/03/14 02:02:36;;;;;;;13.80;1.90;;;6.50;99.90;;;;;;5028368;28;20386;-89
2021/03/14 02:05:08;;;;;;;19.70;1.90;;;6.50;99.90;;;;;;5019373;28;20104;-89
2021/03/14 02:07:37;;;;;;;11.82;2.28;;;6.40;99.90;;;;;;5013431;28;20049;-89
2021/03/14 02:10:06;;;;;;;12.95;2.13;;;6.50;99.90;;;;;;5008914;28;20045;-89
2021/03/14 02:12:47;;;;;;;13.43;2.50;;;6.40;99.90;;;;;;4996577;28;20479;-88
2021/03/14 02:15:17;;;;;;;16.25;2.40;;;6.40;99.90;;;;;;5011975;28;20081;-89
2021/03/14 02:17:46;;;;;;;10.30;2.10;;;6.40;99.90;;;;;;4992044;28;20047;-88
2021/03/14 02:20:20;;;;;;;13.80;2.00;;;6.40;99.90;;;;;;4992520;28;20196;-88
2021/03/14 02:22:51;;;;;;;14.52;2.03;;;6.50;99.90;;;;;;4993439;28;20068;-89
2021/03/14 02:25:35;;;;;;;14.23;2.25;;;6.50;99.90;;;;;;4992224;28;20042;-89
2021/03/14 02:28:04;;;;;;;15.35;2.63;;;6.50;99.90;;;;;;4991803;28;20282;-89
2021/03/14 02:30:32;;;;;;;18.95;2.65;;;6.50;99.90;;;;;;4985817;28;20053;-89
2021/03/14 02:32:59;;;;;;;13.18;2.40;;;6.50;99.90;;;;;;4981124;28;20051;-89
2021/03/14 02:35:30;;;;;;;14.20;1.73;;;6.60;99.90;;;;;;5003808;28;20042;-88
2021/03/14 02:37:58;;;;;;;16.92;2.35;;;6.60;99.90;;;;;;4993943;28;20042;-89
2021/03/14 02:40:25;;;;;;;8.45;1.95;;;6.50;99.90;;;;;;4987504;28;20065;-88
2021/03/14 02:42:53;;;;;;;6.50;1.75;;;6.50;99.90;;;;;;4991872;28;20081;-89
2021/03/14 02:45:20;;;;;;;9.43;1.65;;;6.40;99.90;;;;;;5007308;28;20042;-89
2021/03/14 02:47:47;;;;;;;7.97;1.77;;;6.30;99.90;;;;;;4994494;28;20048;-88
2021/03/14 02:50:20;;;;;;;10.73;1.50;;;6.30;99.90;;;;;;4991754;28;20100;-88
2021/03/14 02:52:48;;;;;;;14.35;2.20;;;6.30;99.90;;;;;;4994460;28;20104;-89
2021/03/14 02:55:20;;;;;;;16.50;2.35;;;6.20;99.90;;;;;;4993735;28;20104;-88
2021/03/14 02:57:48;;;;;;;21.48;2.30;;;6.20;99.90;;;;;;4992742;28;20046;-88
2021/03/14 03:00:20;;;;;;;18.33;2.72;;;6.20;99.90;;;;;;4992208;28;20042;-88
2021/03/14 03:02:49;;;;;;;10.00;2.00;;;6.20;99.90;;;;;;4990769;28;20065;-88
2021/03/14 03:05:18;;;;;;;13.80;2.63;;;6.20;99.90;;;;;;4986521;28;20056;-89
2021/03/14 03:07:50;;;;;;;16.80;2.45;;;6.20;99.90;;;;;;4990927;28;20101;-87
2021/03/14 03:10:18;;;;;;;13.90;3.15;;;6.20;99.90;;;;;;5002553;28;20126;-88
2021/03/14 03:12:47;;;;;;;25.57;3.43;;;6.20;99.90;;;;;;4993417;28;20086;-89
2021/03/14 03:15:19;;;;;;;14.15;2.67;;;6.20;99.90;;;;;;4997160;28;20737;-88
2021/03/14 03:17:49;;;;;;;14.75;2.97;;;6.30;99.90;;;;;;4992068;28;20512;-88
2021/03/14 03:20:24;;;;;;;16.00;3.13;;;6.30;99.90;;;;;;4991023;28;20046;-88
2021/03/14 03:22:51;;;;;;;;;;;6.30;99.90;;;;;;4993539;28;20056;-88
2021/03/14 03:25:18;;;;;;;20.25;3.08;;;6.30;99.90;;;;;;4997529;28;19928;-88
2021/03/14 03:27:45;;;;;;;19.02;2.78;;;6.30;99.90;;;;;;5000931;28;20069;-88
2021/03/14 03:30:17;;;;;;;14.48;2.53;;;6.30;99.90;;;;;;4991361;28;20054;-88
2021/03/14 03:32:45;;;;;;;23.45;3.03;;;6.30;99.90;;;;;;4993047;28;20096;-88
2021/03/14 03:35:16;;;;;;;18.40;2.70;;;6.40;99.90;;;;;;4982800;28;20134;-88
2021/03/14 03:37:47;;;;;;;16.95;2.70;;;6.40;99.90;;;;;;4992667;28;20108;-88
2021/03/14 03:40:17;;;;;;;18.73;2.83;;;6.40;99.90;;;;;;4993060;28;20045;-88
2021/03/14 03:42:50;;;;;;;19.95;2.95;;;6.40;99.90;;;;;;4991333;28;21026;-88
2021/03/14 03:45:19;;;;;;;18.50;2.55;;;6.40;99.90;;;;;;4993444;28;20046;-88
2021/03/14 03:47:46;;;;;;;21.63;3.22;;;6.40;99.90;;;;;;4997770;28;20054;-88
2021/03/14 03:50:15;;;;;;;17.90;2.67;;;6.40;99.90;;;;;;4990979;28;20058;-88
2021/03/14 03:52:44;;;;;;;;;;;6.40;99.90;;;;;;4984504;28;20038;-89
2021/03/14 03:55:11;;;;;;;21.88;2.80;;;6.50;99.90;;;;;;4992271;28;20274;-88
2021/03/14 03:57:39;;;;;;;26.23;3.58;;;6.50;99.90;;;;;;4995187;28;20045;-87
2021/03/14 04:00:13;;;;;;;15.35;2.40;;;6.50;99.90;;;;;;5005261;28;20042;-88
2021/03/14 04:02:41;;;;;;;17.33;2.85;;;6.50;99.90;;;;;;4993099;28;20038;-88
2021/03/14 04:05:11;;;;;;;18.63;2.80;;;6.50;99.90;;;;;;4989832;28;20049;-88
2021/03/14 04:07:39;;;;;;;18.65;2.30;;;6.50;99.90;;;;;;4993003;28;20053;-88
2021/03/14 04:10:10;;;;;;;25.40;3.70;;;6.50;99.90;;;;;;5000478;28;20041;-88
2021/03/14 04:12:39;;;;;;;18.60;3.03;;;6.50;99.90;;;;;;4991400;28;20056;-88
2021/03/14 04:15:09;;;;;;;17.08;2.60;;;6.50;99.90;;;;;;4987917;28;20095;-88
2021/03/14 04:17:37;;;;;;;19.55;3.15;;;6.50;99.90;;;;;;4995857;28;20042;-88
2021/03/14 04:20:09;;;;;;;15.68;2.55;;;6.50;99.90;;;;;;4995625;28;20054;-88
2021/03/14 04:22:38;;;;;;;14.65;2.10;;;6.50;99.90;;;;;;4996314;28;20410;-88
2021/03/14 04:25:07;;;;;;;9.88;1.92;;;6.50;99.90;;;;;;4993259;28;20042;-88
2021/03/14 04:27:34;;;;;;;7.32;1.48;;;6.40;99.90;;;;;;5002233;28;20050;-88
2021/03/14 04:30:03;;;;;;;10.05;1.67;;;6.30;99.90;;;;;;5005301;28;20042;-88
2021/03/14 04:32:30;;;;;;;10.55;1.60;;;6.30;99.90;;;;;;4996418;28;20046;-89
2021/03/14 04:34:58;;;;;;;13.68;2.08;;;6.30;99.90;;;;;;4993743;28;20041;-88
2021/03/14 04:37:25;;;;;;;10.55;1.45;;;6.30;99.90;;;;;;4994088;28;20037;-88
2021/03/14 04:39:54;;;;;;;8.13;1.60;;;6.30;99.90;;;;;;4994982;28;20054;-88
2021/03/14 04:42:23;;;;;;;6.97;1.63;;;6.30;99.90;;;;;;4985459;28;20038;-89
2021/03/14 04:44:50;;;;;;;;;;;6.30;99.90;;;;;;5009821;28;20499;-88
2021/03/14 04:47:18;;;;;;;7.70;2.25;;;6.20;99.90;;;;;;4994398;28;19925;-89
2021/03/14 04:49:45;;;;;;;10.85;1.88;;;6.20;99.90;;;;;;4998096;28;20045;-88
2021/03/14 04:52:13;;;;;;;14.48;2.50;;;6.20;99.90;;;;;;4995284;28;20046;-89
2021/03/14 04:54:40;;;;;;;15.98;2.45;;;6.20;99.90;;;;;;4995947;28;20049;-88
2021/03/14 04:57:08;;;;;;;14.45;2.33;;;6.30;99.90;;;;;;4991356;28;20054;-89
2021/03/14 04:59:37;;;;;;;14.05;2.45;;;6.30;99.90;;;;;;5010073;28;20050;-88
2021/03/14 05:02:05;;;;;;;14.85;2.30;;;6.30;99.90;;;;;;4996411;28;20049;-88
2021/03/14 05:04:33;;;;;;;13.43;2.17;;;6.20;99.90;;;;;;5004335;28;20042;-89
2021/03/14 05:07:01;;;;;;;14.90;2.05;;;6.20;99.90;;;;;;5005572;28;20731;-88
2021/03/14 05:09:30;;;;;;;23.27;2.85;;;6.20;99.90;;;;;;4997492;28;20092;-88
2021/03/14 05:11:57;;;;;;;12.63;2.33;;;6.20;99.90;;;;;;5012782;28;20053;-88
2021/03/14 05:14:25;;;;;;;13.98;2.15;;;6.20;99.90;;;;;;4992295;28;20049;-89
2021/03/14 05:16:52;;;;;;;11.50;2.35;;;6.10;99.90;;;;;;4993045;28;20073;-89
2021/03/14 05:19:19;;;;;;;13.60;2.08;;;6.10;99.90;;;;;;4994321;28;20049;-88
2021/03/14 05:22:00;;;;;;;17.73;2.67;;;6.10;99.90;;;;;;4993844;28;20050;-89
2021/03/14 05:24:28;;;;;;;25.15;3.00;;;6.10;99.90;;;;;;4995149;28;20045;-88
2021/03/14 05:27:00;;;;;;;13.75;2.53;;;6.00;99.90;;;;;;4992765;28;21402;-88
2021/03/14 05:29:27;;;;;;;19.55;3.15;;;6.00;99.90;;;;;;4990467;28;20050;-89
2021/03/14 05:31:56;;;;;;;31.00;3.58;;;6.00;99.90;;;;;;4986439;28;20081;-88
2021/03/14 05:34:23;;;;;;;22.70;3.80;;;6.00;99.90;;;;;;4995275;28;22597;-88
2021/03/14 05:36:50;;;;;;;20.25;5.03;;;6.00;99.90;;;;;;4993676;28;20480;-88
2021/03/14 05:39:17;;;;;;;15.77;3.58;;;6.00;99.90;;;;;;5008078;28;20053;-89
2021/03/14 05:41:44;;;;;;;30.00;3.42;;;6.10;99.90;;;;;;4995665;28;20050;-89
2021/03/14 05:44:13;;;;;;;26.30;3.38;;;6.10;99.90;;;;;;4995622;28;20136;-89
2021/03/14 05:46:41;;;;;;;15.85;2.97;;;6.10;99.90;;;;;;4993123;28;20073;-88
2021/03/14 05:49:09;;;;;;;21.08;3.22;;;6.10;99.90;;;;;;4994841;28;20416;-88
2021/03/14 05:51:41;;;;;;;17.42;2.95;;;6.10;99.90;;;;;;4991836;28;20049;-89
2021/03/14 05:54:14;;;;;;;25.25;3.78;;;6.20;99.90;;;;;;4993625;28;20078;-88
2021/03/14 05:56:44;;;;;;;36.50;4.65;;;6.20;99.90;;;;;;4990148;28;20133;-88
2021/03/14 05:59:13;;;;;;;24.80;3.72;;;6.20;99.90;;;;;;4993640;28;20045;-88
2021/03/14 06:01:46;;;;;;;19.90;2.47;;;6.20;99.90;;;;;;4994040;28;20046;-88
2021/03/14 06:04:14;;;;;;;22.13;3.47;;;6.20;99.90;;;;;;4992515;28;20347;-88
2021/03/14 06:06:42;;;;;;;20.10;3.70;;;6.20;99.90;;;;;;4991659;28;20047;-88
2021/03/14 06:09:09;;;;;;;20.55;3.55;;;6.20;99.90;;;;;;4997590;28;20137;-88
2021/03/14 06:11:36;;;;;;;18.98;2.95;;;6.20;99.90;;;;;;5011161;28;20049;-88
2021/03/14 06:14:03;;;;;;;28.58;3.00;;;6.20;99.90;;;;;;5018855;28;20068;-88
2021/03/14 06:16:30;;;;;;;17.20;3.17;;;6.20;99.90;;;;;;5006865;28;20053;-88
2021/03/14 06:18:57;;;;;;;27.05;3.85;;;6.20;99.90;;;;;;5010113;28;20086;-88
2021/03/14 06:21:28;;;;;;;18.67;3.22;;;6.10;99.90;;;;;;5002297;28;20072;-88
2021/03/14 06:23:56;;;;;;;25.48;3.33;;;6.10;99.90;;;;;;5022730;28;20060;-88
2021/03/14 06:26:39;;;;;;;30.30;4.03;;;6.20;99.90;;;;;;5009572;28;20045;-88
2021/03/14 06:29:19;;;;;;;23.25;2.70;;;6.20;99.90;;;;;;5010035;28;20049;-88
2021/03/14 06:31:59;;;;;;;15.20;2.63;;;6.30;99.90;;;;;;5009539;28;20066;-88
2021/03/14 06:34:38;;;;;;;21.67;2.75;;;6.40;99.90;;;;;;5011409;28;20044;-88
2021/03/14 06:37:07;;;;;;;;;;;6.40;99.90;;;;;;4997156;28;20108;-88
2021/03/14 06:39:36;;;;;;;20.27;3.05;;;6.40;99.90;;;;;;5009714;28;19921;-88
2021/03/14 06:42:04;;;;;;;12.40;2.50;;;6.40;99.90;;;;;;5011650;28;20056;-88
2021/03/14 06:44:45;;;;;;;19.90;2.97;;;6.40;99.90;;;;;;5009040;28;20042;-88
2021/03/14 06:47:12;;;;;;;18.70;2.42;;;6.40;99.90;;;;;;5009453;28;20467;-89
2021/03/14 06:49:40;;;;;;;23.98;3.08;;;6.40;99.90;;;;;;5007650;28;20042;-88
2021/03/14 06:52:08;;;;;;;20.70;3.13;;;6.40;99.90;;;;;;5003399;28;20054;-88
2021/03/14 06:54:39;;;;;;;20.95;2.97;;;6.40;99.90;;;;;;5009211;28;20050;-88
2021/03/14 06:57:10;;;;;;;15.38;2.70;;;6.40;99.90;;;;;;5007958;28;20046;-88
2021/03/14 06:59:40;;;;;;;16.25;2.25;;;6.40;99.90;;;;;;5007097;28;20045;-88
2021/03/14 07:02:14;;;;;;;15.32;2.10;;;6.40;99.90;;;;;;5008225;28;20050;-88
2021/03/14 07:05:03;;;;;;;18.50;2.60;;;6.30;99.90;;;;;;5006906;28;20048;-88
2021/03/14 07:07:43;;;;;;;14.50;2.58;;;6.30;99.90;;;;;;5007165;28;20069;-88
2021/03/14 07:10:13;;;;;;;18.33;2.10;;;6.40;99.90;;;;;;5006000;28;20504;-89
2021/03/14 07:12:45;;;;;;;15.57;2.30;;;6.40;99.90;;;;;;5005688;28;20493;-88
2021/03/14 07:15:21;;;;;;;17.17;2.78;;;6.40;99.90;;;;;;5021741;28;20471;-89
2021/03/14 07:17:56;;;;;;;17.60;2.67;;;6.40;99.90;;;;;;5015138;28;20448;-88
2021/03/14 07:20:29;;;;;;;14.07;2.20;;;6.40;99.90;;;;;;5012965;28;20486;-88
2021/03/14 07:23:09;;;;;;;14.13;2.05;;;6.50;99.90;;;;;;5012744;28;20394;-89
2021/03/14 07:25:44;;;;;;;15.88;2.63;;;6.60;99.90;;;;;;5020176;28;20041;-88
2021/03/14 07:28:12;;;;;;;18.98;2.42;;;6.60;99.90;;;;;;5011288;28;20053;-88
2021/03/14 07:30:39;;;;;;;11.35;2.65;;;6.70;99.90;;;;;;5009055;28;20041;-88
2021/03/14 07:33:06;;;;;;;18.77;2.78;;;6.70;99.90;;;;;;5011251;28;20042;-88
2021/03/14 07:35:33;;;;;;;15.68;2.88;;;6.70;99.90;;;;;;5010072;28;20045;-88
2021/03/14 07:38:00;;;;;;;16.75;2.53;;;6.80;99.90;;;;;;5011848;28;20049;-88
2021/03/14 07:40:29;;;;;;;19.23;2.85;;;6.80;99.90;;;;;;5011466;28;20071;-88
2021/03/14 07:42:57;;;;;;;14.63;2.50;;;6.90;99.90;;;;;;4996794;28;20054;-88
2021/03/14 07:45:25;;;;;;;16.95;2.63;;;6.90;99.90;;;;;;5025456;28;22017;-88
2021/03/14 07:47:53;;;;;;;20.27;2.92;;;7.00;99.90;;;;;;5019683;28;20076;-88
2021/03/14 07:50:45;;;;;;;16.63;2.50;;;7.00;99.90;;;;;;5022638;28;20045;-88
2021/03/14 07:53:16;;;;;;;19.08;3.03;;;7.10;99.90;;;;;;5020619;28;20095;-89
2021/03/14 07:55:52;;;;;;;16.75;2.67;;;7.20;99.90;;;;;;5009587;28;20108;-88
2021/03/14 07:58:23;;;;;;;16.63;2.33;;;7.30;99.90;;;;;;5012482;28;20128;-88
2021/03/14 08:00:49;;;;;;;12.23;2.28;;;7.30;99.90;;;;;;5011371;28;20060;-88
2021/03/14 08:03:17;;;;;;;20.50;2.90;;;7.40;99.90;;;;;;5011762;28;20419;-88
2021/03/14 08:05:47;;;;;;;14.13;2.38;;;7.50;99.90;;;;;;5005945;28;20042;-88
2021/03/14 08:08:37;;;;;;;22.00;2.92;;;7.60;99.90;;;;;;4999076;28;20045;-88
2021/03/14 08:11:06;;;;;;;17.65;2.67;;;7.70;99.90;;;;;;5009571;28;20076;-88
2021/03/14 08:13:34;;;;;;;13.85;3.03;;;7.80;99.90;;;;;;5003791;28;20045;-89
2021/03/14 08:16:06;;;;;;;19.55;3.28;;;7.90;99.90;;;;;;5009457;28;20041;-89
2021/03/14 08:18:47;;;;;;;21.35;3.60;;;8.00;99.90;;;;;;5002970;28;20060;-87
2021/03/14 08:21:19;;;;;;;19.40;3.42;;;8.10;99.90;;;;;;5010429;28;20057;-89
2021/03/14 08:23:52;;;;;;;24.10;3.78;;;8.30;99.90;;;;;;5007810;28;20049;-88
2021/03/14 08:26:19;;;;;;;26.42;3.70;;;8.50;99.90;;;;;;5004819;28;20136;-88
2021/03/14 08:29:13;;;;;;;18.05;2.90;;;8.60;99.90;;;;;;5008788;28;20037;-87
2021/03/14 08:31:44;;;;;;;22.08;3.78;;;8.60;99.90;;;;;;5024945;28;20037;-88
2021/03/14 08:34:25;;;;;;;24.55;3.90;;;8.60;99.90;;;;;;5011915;28;20045;-89
2021/03/14 08:36:54;;;;;;;16.30;3.00;;;8.50;99.90;;;;;;5018712;28;20045;-88
2021/03/14 08:39:26;;;;;;;16.23;3.23;;;8.60;99.90;;;;;;5013700;28;20033;-89
2021/03/14 08:41:57;;;;;;;17.80;3.08;;;8.60;99.90;;;;;;5024298;28;20053;-88
2021/03/14 08:44:35;;;;;;;23.65;3.75;;;8.70;99.90;;;;;;5009077;28;20054;-89
2021/03/14 08:47:15;;;;;;;17.58;2.92;;;8.80;99.90;;;;;;5014056;28;20056;-89
2021/03/14 08:49:47;;;;;;;23.92;3.15;;;8.90;99.90;;;;;;5008482;28;20041;-88
2021/03/14 08:52:15;;;;;;;23.40;3.13;;;9.10;99.90;;;;;;5005345;28;20052;-88
2021/03/14 08:54:45;;;;;;;21.40;2.88;;;9.10;99.90;;;;;;5009432;28;20053;-89
2021/03/14 08:57:15;;;;;;;21.48;3.55;;;9.20;99.90;;;;;;5008342;28;20080;-88
2021/03/14 08:59:50;;;;;;;16.95;3.10;;;9.30;99.90;;;;;;5010464;28;20087;-88
2021/03/14 09:02:28;;;;;;;20.25;3.17;;;9.40;99.90;;;;;;5015393;28;20041;-89
2021/03/14 09:05:12;;;;;;;18.40;3.05;;;9.50;99.90;;;;;;5017439;28;20053;-90
2021/03/14 09:07:41;;;;;;;17.05;3.45;;;9.60;99.90;;;;;;5026649;28;20041;-89
2021/03/14 09:10:13;;;;;;;17.75;3.00;;;9.50;99.90;;;;;;5006387;28;20041;-88
2021/03/14 09:12:40;;;;;;;19.20;3.20;;;9.50;99.90;;;;;;5007902;28;20045;-89
2021/03/14 09:15:08;;;;;;;17.58;3.58;;;9.30;99.90;;;;;;5010189;28;20046;-88
2021/03/14 09:17:39;;;;;;;18.52;3.10;;;9.30;99.90;;;;;;5003461;28;20053;-88
2021/03/14 09:20:17;;;;;;;16.23;2.97;;;9.30;99.90;;;;;;5006518;28;20042;-88
2021/03/14 09:22:45;;;;;;;16.23;2.60;;;9.30;99.90;;;;;;5005255;28;20053;-87
2021/03/14 09:25:15;;;;;;;16.02;3.67;;;9.40;99.90;;;;;;5002173;28;20041;-87
2021/03/14 09:27:44;;;;;;;18.95;3.50;;;9.40;99.90;;;;;;5011636;28;20115;-87
2021/03/14 09:30:13;;;;;;;16.95;2.80;;;9.40;99.90;;;;;;5003875;28;20045;-87
2021/03/14 09:32:48;;;;;;;15.63;2.78;;;9.40;99.90;;;;;;5005244;28;20064;-87
2021/03/14 09:35:26;;;;;;;15.32;3.10;;;9.50;99.90;;;;;;5009316;28;20050;-86
2021/03/14 09:38:00;;;;;;;15.85;2.50;;;9.60;99.90;;;;;;5009946;28;20077;-87
2021/03/14 09:40:28;;;;;;;25.25;2.88;;;9.60;99.90;;;;;;5007346;28;20048;-87
2021/03/14 09:43:08;;;;;;;16.02;2.30;;;9.70;99.90;;;;;;5010597;28;20344;-86
2021/03/14 09:45:37;;;;;;;16.27;2.67;;;9.80;99.90;;;;;;5008652;28;20046;-86
2021/03/14 09:48:06;;;;;;;12.40;2.08;;;9.80;99.90;;;;;;5009575;28;20057;-87
2021/03/14 09:50:50;;;;;;;17.33;3.28;;;9.80;99.90;;;;;;5012112;28;20100;-87
2021/03/14 09:53:18;;;;;;;11.98;2.53;;;9.80;99.90;;;;;;5006515;28;20479;-87
2021/03/14 09:55:52;;;;;;;;;;;9.90;99.90;;;;;;5007900;28;20049;-87
2021/03/14 09:58:22;;;;;;;21.80;3.13;;;10.00;99.90;;;;;;5007233;28;19921;-88
2021/03/14 10:00:51;;;;;;;15.70;2.53;;;10.20;99.90;;;;;;5008870;28;20064;-86
2021/03/14 10:03:21;;;;;;;;;;;10.30;99.90;;;;;;5008209;28;20049;-85
2021/03/14 10:05:50;;;;;;;13.88;2.42;;;10.30;99.90;;;;;;5007228;28;19933;-86
2021/03/14 10:08:20;;;;;;;;;;;10.30;99.90;;;;;;5009467;28;20402;-86
2021/03/14 10:10:50;;;;;;;13.05;2.30;;;10.30;99.90;;;;;;5014210;28;19921;-86
2021/03/14 10:13:23;;;;;;;15.68;3.00;;;10.30;99.90;;;;;;5009284;28;20041;-86
2021/03/14 10:15:51;;;;;;;18.63;3.05;;;10.30;99.90;;;;;;5011805;28;20057;-87
2021/03/14 10:18:20;;;;;;;20.05;2.90;;;10.30;99.90;;;;;;5012977;28;20049;-86
2021/03/14 10:20:47;;;;;;;13.98;2.40;;;10.40;99.90;;;;;;5013461;28;20056;-89
2021/03/14 10:23:20;;;;;;;23.38;4.10;;;10.50;99.90;;;;;;5018357;28;20597;-86
2021/03/14 10:25:46;;;;;;;18.20;2.80;;;10.60;99.90;;;;;;5015741;28;20037;-86
2021/03/14 10:28:18;;;;;;;15.27;3.15;;;10.50;99.90;;;;;;5011027;28;20046;-85
2021/03/14 10:30:47;;;;;;;11.93;1.77;;;10.40;99.90;;;;;;5011561;28;20049;-86
2021/03/14 10:33:31;;;;;;;9.73;2.42;;;10.30;99.90;;;;;;5023687;28;20049;-86
2021/03/14 10:36:05;;;;;;;9.48;1.60;;;10.30;99.90;;;;;;5010280;28;20060;-85
2021/03/14 10:38:47;;;;;;;9.95;1.80;;;10.30;99.90;;;;;;5010157;28;20041;-84
2021/03/14 10:41:15;;;;;;;9.75;1.55;;;10.30;99.90;;;;;;5010460;28;20049;-87
2021/03/14 10:43:53;;;;;;;10.90;1.67;;;10.30;99.90;;;;;;5010810;28;20493;-87
2021/03/14 10:46:46;;;;;;;11.27;1.70;;;10.40;99.90;;;;;;5010258;28;20053;-85
2021/03/14 10:49:23;;;;;;;8.93;2.13;;;10.30;99.90;;;;;;5010485;28;20046;-85
2021/03/14 10:51:52;;;;;;;10.23;1.70;;;10.40;99.90;;;;;;5011117;28;20061;-85
2021/03/14 10:54:20;;;;;;;10.15;1.88;;;10.40;99.90;;;;;;5010826;28;20128;-85
2021/03/14 10:56:51;;;;;;;11.35;1.92;;;10.40;99.90;;;;;;5013237;28;20520;-85
2021/03/14 10:59:25;;;;;;;15.57;2.55;;;10.40;99.90;;;;;;5012883;28;20390;-87
2021/03/14 11:02:18;;;;;;;13.70;2.30;;;10.40;99.90;;;;;;5009419;28;20509;-85
2021/03/14 11:04:53;;;;;;;15.48;2.22;;;10.40;99.90;;;;;;5003089;28;20041;-87
2021/03/14 11:07:34;;;;;;;13.00;1.80;;;10.30;99.90;;;;;;5009995;28;20807;-85
2021/03/14 11:10:08;;;;;;;9.18;1.90;;;10.30;99.90;;;;;;5010264;28;20073;-85
2021/03/14 11:12:37;;;;;;;13.38;2.22;;;10.40;99.90;;;;;;5010200;28;20046;-84
2021/03/14 11:15:24;;;;;;;13.05;2.17;;;10.40;99.90;;;;;;5027602;28;20048;-87
2021/03/14 11:17:52;;;;;;;11.93;2.22;;;10.40;99.90;;;;;;5008580;28;20042;-87
2021/03/14 11:20:20;;;;;;;12.57;2.20;;;10.50;99.90;;;;;;5010795;28;20073;-89
2021/03/14 11:22:54;;;;;;;12.18;1.90;;;10.60;99.90;;;;;;5010703;28;20280;-87
2021/03/14 11:25:23;;;;;;;11.75;2.75;;;10.60;99.90;;;;;;5015275;28;20406;-86
2021/03/14 11:27:55;;;;;;;9.60;1.40;;;10.70;99.90;;;;;;5011340;28;20115;-86
2021/03/14 11:30:25;;;;;;;10.30;2.03;;;10.70;99.90;;;;;;5010367;28;20054;-87
2021/03/14 11:32:52;;;;;;;8.40;1.20;;;10.70;99.90;;;;;;5010417;28;20049;-87
2021/03/14 11:35:20;;;;;;;8.15;1.50;;;10.70;99.90;;;;;;5014580;28;20041;-87
2021/03/14 11:37:47;;;;;;;6.10;1.38;;;10.80;99.90;;;;;;5013135;28;20045;-87
2021/03/14 11:40:14;;;;;;;7.45;1.48;;;10.70;99.90;;;;;;5014019;28;20065;-84
2021/03/14 11:42:42;;;;;;;15.18;1.73;;;10.70;99.90;;;;;;5014086;28;20050;-83
2021/03/14 11:45:11;;;;;;;9.00;1.47;;;10.70;99.90;;;;;;5008918;28;20057;-82
2021/03/14 11:47:38;;;;;;;11.13;2.20;;;10.60;99.90;;;;;;5012881;28;20320;-83
2021/03/14 11:50:07;;;;;;;13.90;1.90;;;10.70;99.90;;;;;;5009725;28;20248;-84
2021/03/14 11:52:34;;;;;;;9.65;1.67;;;10.80;99.90;;;;;;5008942;28;20060;-81
2021/03/14 11:55:01;;;;;;;11.77;2.70;;;10.80;99.90;;;;;;5018789;28;20038;-82
2021/03/14 11:57:27;;;;;;;12.02;2.50;;;10.90;99.90;;;;;;5014675;28;20399;-84
2021/03/14 11:59:57;;;;;;;10.18;2.50;;;10.90;99.90;;;;;;5007901;28;20049;-85
2021/03/14 12:02:24;;;;;;;10.60;2.40;;;11.10;99.90;;;;;;5013797;28;20041;-82
2021/03/14 12:04:51;;;;;;;11.77;2.83;;;11.00;99.90;;;;;;5008807;28;20115;-84
2021/03/14 12:07:19;;;;;;;17.77;4.95;;;11.00;99.90;;;;;;5009711;28;20498;-83
2021/03/14 12:09:47;;;;;;;17.77;2.75;;;11.10;99.90;;;;;;5004602;28;20038;-82
2021/03/14 12:12:13;;;;;;;14.57;2.07;;;11.10;99.90;;;;;;5009471;28;20049;-82
2021/03/14 12:14:41;;;;;;;8.57;1.73;;;11.10;99.90;;;;;;5009331;28;20488;-84
2021/03/14 12:17:10;;;;;;;10.18;1.77;;;11.00;99.90;;;;;;5008032;28;20045;-86
2021/03/14 12:19:37;;;;;;;12.70;2.30;;;11.00;99.90;;;;;;5008647;28;20052;-83
2021/03/14 12:22:03;;;;;;;11.80;2.30;;;11.10;99.90;;;;;;5014683;28;20064;-85
2021/03/14 12:24:30;;;;;;;10.32;1.98;;;11.20;99.90;;;;;;5006939;28;20132;-83
2021/03/14 12:27:17;;;;;;;11.05;1.95;;;11.20;99.90;;;;;;5013804;28;20052;-83
2021/03/14 12:29:43;;;;;;;10.88;1.85;;;11.20;99.90;;;;;;5010236;28;20099;-85
2021/03/14 12:32:11;;;;;;;9.65;2.13;;;11.10;99.90;;;;;;5008195;28;20049;-83
2021/03/14 12:34:37;;;;;;;9.90;2.15;;;11.20;99.90;;;;;;5009160;28;20049;-83
2021/03/14 12:37:04;;;;;;;8.75;1.67;;;11.30;99.90;;;;;;5010638;28;20612;-84
2021/03/14 12:39:31;;;;;;;11.77;2.00;;;11.40;99.90;;;;;;5012936;28;20103;-83
2021/03/14 12:41:58;;;;;;;13.02;2.50;;;11.40;99.90;;;;;;5015289;28;20037;-83
2021/03/14 12:44:24;;;;;;;6.45;1.60;;;11.40;99.90;;;;;;5010766;28;20053;-83
2021/03/14 12:46:51;;;;;;;7.65;1.85;;;11.50;99.90;;;;;;5015681;28;20050;-83
2021/03/14 12:49:18;;;;;;;9.40;1.65;;;11.50;99.90;;;;;;5012248;28;20050;-84
2021/03/14 12:51:45;;;;;;;9.93;1.65;;;11.60;99.90;;;;;;5013701;28;20046;-83
2021/03/14 12:54:11;;;;;;;9.07;1.60;;;11.50;99.90;;;;;;5010459;28;20046;-84
2021/03/14 12:56:38;;;;;;;11.57;1.83;;;11.40;99.90;;;;;;5012123;28;20061;-82
2021/03/14 12:59:05;;;;;;;11.75;2.05;;;11.40;99.90;;;;;;5012614;28;20053;-85
2021/03/14 13:01:31;;;;;;;12.98;2.22;;;11.40;99.90;;;;;;5014035;28;20049;-85
2021/03/14 13:03:58;;;;;;;13.48;2.67;;;11.40;99.90;;;;;;5012407;28;20049;-85